Terminal Aerodrome Forecast
Issued by NWS

Home | Current Version | Previous Version | Text Only | Print | Product List | Glossary On
Versions: 1 2 3 4 5 6 7 8 9 10 11 12 13 14 15
000
FTAK31 PAJN 272300 RRA
TAFAPG
TAF
PAPG 272341Z 2800/2824 VRB04KT 4SM -RA BR BKN008 OVC015
     FM280400 VRB03KT P6SM -RA SCT015 BKN035 OVC050
     FM280900 VRB03KT 6SM -RA BR SCT004 BKN008 OVC020
     FM281200 00000KT P6SM -RA SCT025 OVC050
      TEMPO 2816/2820 6SM -RA BR BKN020 OVC040
     FM282100 VRB03KT P6SM -RA SCT025 OVC050
      AMD LTD TO CLD VIS AND WIND 2806/2815=

USA.gov is the U.S. government's official web portal to all federal, state and local government web resources and services.